Time;durP1;ratioP1;P1;durP2;ratioP2;P2;SDS_P1;SDS_P2;PMS_P1;PMS_P2;Temp;Humidity;BMP_temperature;BMP_pressure;BME280_temperature;BME280_humidity;BME280_pressure;Samples;Min_cycle;Max_cycle;Signal;HPM_P1;HPM_P2
2022/03/22 00:00:37;;;;;;;33.47;16.63;;;11.40;99.90;;;;;;5055625;28;20170;-81
2022/03/22 00:03:04;;;;;;;42.00;19.95;;;11.50;99.90;;;;;;5055372;28;20210;-80
2022/03/22 00:05:31;;;;;;;31.00;17.30;;;11.50;99.90;;;;;;5056104;28;20221;-80
2022/03/22 00:07:59;;;;;;;33.70;16.48;;;11.50;99.90;;;;;;5055690;28;20213;-79
2022/03/22 00:10:25;;;;;;;33.47;17.65;;;11.50;99.90;;;;;;5055509;28;20170;-81
2022/03/22 00:12:51;;;;;;;35.60;19.00;;;11.70;99.90;;;;;;5055479;28;20517;-81
2022/03/22 00:15:17;;;;;;;34.45;19.13;;;11.70;99.90;;;;;;5055780;28;20163;-82
2022/03/22 00:17:42;;;;;;;39.28;18.88;;;11.70;99.90;;;;;;5055452;28;20553;-80
2022/03/22 00:20:10;;;;;;;40.20;18.60;;;11.80;99.90;;;;;;5072974;28;20154;-80
2022/03/22 00:22:39;;;;;;;33.80;17.38;;;11.60;99.90;;;;;;5062492;28;20292;-82
2022/03/22 00:25:07;;;;;;;28.85;16.95;;;11.50;99.90;;;;;;5037210;28;20171;-82
2022/03/22 00:27:50;;;;;;;41.28;17.50;;;11.50;99.90;;;;;;5054809;28;20236;-79
2022/03/22 00:30:18;;;;;;;37.88;17.38;;;11.60;99.90;;;;;;5054674;28;20544;-82
2022/03/22 00:32:43;;;;;;;30.80;18.35;;;11.60;99.90;;;;;;5054956;28;20173;-80
2022/03/22 00:35:09;;;;;;;34.00;16.75;;;11.60;99.90;;;;;;5054804;28;20247;-82
2022/03/22 00:37:40;;;;;;;31.23;17.38;;;11.60;99.90;;;;;;5036599;28;20187;-82
2022/03/22 00:40:10;;;;;;;32.15;17.15;;;11.50;99.90;;;;;;5054719;28;20164;-83
2022/03/22 00:42:35;;;;;;;31.80;17.35;;;11.40;99.90;;;;;;5054891;28;20199;-82
2022/03/22 00:45:01;;;;;;;45.78;17.42;;;11.40;99.90;;;;;;5054339;28;20166;-81
2022/03/22 00:47:27;;;;;;;36.90;17.67;;;11.50;99.90;;;;;;5054151;28;20210;-82
2022/03/22 00:49:53;;;;;;;29.02;15.98;;;11.30;99.90;;;;;;5054259;28;20662;-80
2022/03/22 00:52:18;;;;;;;32.25;18.80;;;11.20;99.90;;;;;;5054324;28;20624;-79
2022/03/22 00:54:44;;;;;;;36.67;15.75;;;11.20;99.90;;;;;;5054348;28;20201;-80
2022/03/22 00:57:10;;;;;;;32.92;17.05;;;11.10;99.90;;;;;;5054039;28;20183;-80
2022/03/22 01:02:19;;;;;;;35.35;15.25;;;11.10;99.90;;;;;;5053896;28;20214;-80
2022/03/22 01:04:45;;;;;;;36.30;17.02;;;11.20;99.90;;;;;;5053899;28;20548;-80
2022/03/22 01:07:10;;;;;;;35.88;14.40;;;11.20;99.90;;;;;;5053688;28;20187;-80
2022/03/22 01:09:36;;;;;;;35.28;15.15;;;11.10;99.90;;;;;;5053867;28;20159;-80
2022/03/22 01:12:01;;;;;;;28.35;15.55;;;11.00;99.90;;;;;;5036158;28;20248;-81
2022/03/22 01:14:28;;;;;;;21.55;14.75;;;11.00;99.90;;;;;;5053973;28;20163;-83
2022/03/22 01:16:54;;;;;;;24.35;14.80;;;11.10;99.90;;;;;;5053700;28;20186;-82
2022/03/22 01:19:21;;;;;;;28.63;14.30;;;11.00;99.90;;;;;;5053641;28;20632;-81
2022/03/22 01:21:47;;;;;;;23.17;13.88;;;11.00;99.90;;;;;;5053957;28;20202;-79
2022/03/22 01:24:13;;;;;;;33.38;15.52;;;10.90;99.90;;;;;;5053484;28;20254;-82
2022/03/22 01:26:40;;;;;;;22.50;14.70;;;10.80;99.90;;;;;;5053679;28;20270;-83
2022/03/22 01:29:06;;;;;;;26.73;14.32;;;10.80;99.90;;;;;;5053196;28;20742;-80
2022/03/22 01:31:32;;;;;;;27.77;12.82;;;10.90;99.90;;;;;;5053289;28;20179;-82
2022/03/22 01:33:58;;;;;;;27.77;12.68;;;10.90;99.90;;;;;;5035610;28;20559;-80
2022/03/22 01:36:23;;;;;;;31.33;14.40;;;10.90;99.90;;;;;;5053369;28;20240;-82
2022/03/22 01:38:49;;;;;;;24.92;14.02;;;11.00;99.90;;;;;;5053684;28;20591;-80
2022/03/22 01:41:14;;;;;;;31.55;14.25;;;11.00;99.90;;;;;;5053468;28;20261;-83
2022/03/22 01:43:40;;;;;;;28.88;14.30;;;10.90;99.90;;;;;;5053684;28;20667;-80
2022/03/22 01:46:06;;;;;;;35.85;14.70;;;10.80;99.90;;;;;;5053278;28;20246;-82
2022/03/22 01:48:31;;;;;;;34.90;15.20;;;10.80;99.90;;;;;;5035336;28;20578;-82
2022/03/22 01:50:57;;;;;;;34.75;15.18;;;10.80;99.90;;;;;;5053309;28;20625;-82
2022/03/22 01:53:23;;;;;;;31.45;14.45;;;10.70;99.90;;;;;;5056775;28;20187;-82
2022/03/22 01:55:48;;;;;;;31.17;13.48;;;10.50;99.90;;;;;;5037363;28;20532;-82
2022/03/22 01:58:14;;;;;;;26.30;12.90;;;10.40;99.90;;;;;;5054608;28;20191;-78
2022/03/22 02:00:40;;;;;;;24.40;13.23;;;10.40;99.90;;;;;;5054616;28;20612;-84
2022/03/22 02:05:51;;;;;;;19.88;13.25;;;10.60;99.90;;;;;;5055230;28;20178;-81
2022/03/22 02:08:19;;;;;;;22.88;13.35;;;10.50;99.90;;;;;;5053782;28;20191;-81
2022/03/22 02:10:46;;;;;;;29.52;14.10;;;10.50;99.90;;;;;;5054551;28;20186;-81
2022/03/22 02:13:13;;;;;;;32.75;13.52;;;10.30;99.90;;;;;;5054116;28;20250;-83
2022/03/22 02:15:39;;;;;;;18.25;13.00;;;10.20;99.90;;;;;;5054139;28;20178;-83
2022/03/22 02:18:05;;;;;;;19.80;13.15;;;10.20;99.90;;;;;;5053835;28;20183;-82
2022/03/22 02:20:30;;;;;;;27.67;13.75;;;10.40;99.90;;;;;;5036386;28;20650;-83
2022/03/22 02:23:13;;;;;;;22.70;13.18;;;10.40;99.90;;;;;;5036215;28;20215;-83
2022/03/22 02:25:38;;;;;;;18.00;12.70;;;10.40;99.90;;;;;;5054515;28;20171;-83
2022/03/22 02:28:05;;;;;;;18.23;14.20;;;10.30;99.90;;;;;;5054932;28;20187;-80
2022/03/22 02:30:31;;;;;;;22.77;13.70;;;10.40;99.90;;;;;;5054001;28;20539;-83
2022/03/22 02:33:01;;;;;;;23.95;12.75;;;10.50;99.90;;;;;;5053169;28;20159;-83
2022/03/22 02:35:28;;;;;;;19.88;13.18;;;10.50;99.90;;;;;;5052849;28;20159;-79
2022/03/22 02:37:55;;;;;;;25.50;14.30;;;10.50;99.90;;;;;;5052656;28;20270;-83
2022/03/22 02:40:20;;;;;;;27.88;13.07;;;10.40;99.90;;;;;;5053334;28;20639;-81
2022/03/22 02:42:51;;;;;;;21.17;11.48;;;10.20;99.90;;;;;;5055117;28;20198;-83
2022/03/22 02:45:18;;;;;;;21.83;12.35;;;10.20;99.90;;;;;;5056376;28;20203;-81
2022/03/22 02:47:44;;;;;;;19.05;12.38;;;10.20;99.90;;;;;;5056911;28;20325;-84
2022/03/22 02:50:11;;;;;;;16.48;13.13;;;10.20;99.90;;;;;;5056321;28;20168;-84
2022/03/22 02:52:38;;;;;;;23.30;12.50;;;10.10;99.90;;;;;;5064679;28;20214;-79
2022/03/22 02:55:06;;;;;;;21.33;13.05;;;10.10;99.90;;;;;;5073431;28;20216;-80
2022/03/22 02:57:32;;;;;;;24.42;13.20;;;10.20;99.90;;;;;;5056379;28;20215;-79
2022/03/22 02:59:58;;;;;;;21.55;12.80;;;10.20;99.90;;;;;;5056472;28;20224;-84
2022/03/22 03:02:24;;;;;;;16.20;12.50;;;10.20;99.90;;;;;;5036441;28;20206;-83
2022/03/22 03:04:49;;;;;;;22.20;12.85;;;10.20;99.90;;;;;;5054216;28;20175;-80
2022/03/22 03:07:15;;;;;;;22.50;13.70;;;10.00;99.90;;;;;;5055583;28;20187;-83
2022/03/22 03:09:40;;;;;;;21.10;12.82;;;10.00;99.90;;;;;;5058693;28;20229;-82
2022/03/22 03:12:06;;;;;;;20.83;13.35;;;10.00;99.90;;;;;;5056293;28;20170;-82
2022/03/22 03:14:41;;;;;;;18.88;12.27;;;10.00;99.90;;;;;;5057484;28;20171;-83
2022/03/22 03:17:09;;;;;;;24.33;13.93;;;10.20;99.90;;;;;;5054725;28;20677;-83
2022/03/22 03:19:34;;;;;;;24.55;12.48;;;10.10;99.90;;;;;;5057464;28;20214;-83
2022/03/22 03:22:03;;;;;;;27.35;13.55;;;10.10;99.90;;;;;;5062764;28;20203;-81
2022/03/22 03:24:28;;;;;;;23.95;12.93;;;10.00;99.90;;;;;;5043513;28;20159;-83
2022/03/22 03:26:54;;;;;;;19.90;13.82;;;10.10;99.90;;;;;;5059097;28;20198;-82
2022/03/22 03:29:20;;;;;;;23.90;13.27;;;10.10;99.90;;;;;;5056401;28;20167;-84
2022/03/22 03:31:45;;;;;;;31.25;13.43;;;10.10;99.90;;;;;;5056158;28;20201;-80
2022/03/22 03:34:11;;;;;;;25.88;13.82;;;10.00;99.90;;;;;;5055826;28;20163;-83
2022/03/22 03:36:37;;;;;;;27.65;13.43;;;9.80;99.90;;;;;;5056131;28;20262;-80
2022/03/22 03:39:04;;;;;;;23.35;13.57;;;9.80;99.90;;;;;;5056399;28;20238;-81
2022/03/22 03:47:05;;;;;;;34.60;14.02;;;9.80;99.90;;;;;;5055988;28;20543;-83
2022/03/22 03:49:37;;;;;;;25.20;14.30;;;9.80;99.90;;;;;;5055796;28;20160;-83
2022/03/22 03:52:04;;;;;;;28.65;14.13;;;9.80;99.90;;;;;;5038022;28;20170;-83
2022/03/22 03:54:30;;;;;;;23.73;14.30;;;9.90;99.90;;;;;;5056238;28;20171;-80
2022/03/22 03:56:56;;;;;;;24.13;13.40;;;9.90;99.90;;;;;;5056493;28;20687;-82
2022/03/22 03:59:21;;;;;;;26.65;14.02;;;10.00;99.90;;;;;;5047153;28;20163;-80
2022/03/22 04:01:47;;;;;;;28.42;15.55;;;10.00;99.90;;;;;;5073631;28;20202;-82
2022/03/22 04:04:13;;;;;;;24.67;13.40;;;9.90;99.90;;;;;;5054718;28;20197;-82
2022/03/22 04:06:38;;;;;;;22.02;13.57;;;9.70;99.90;;;;;;5073199;28;20187;-82
2022/03/22 04:09:04;;;;;;;33.92;14.27;;;9.50;99.90;;;;;;5061184;28;20162;-81
2022/03/22 04:11:29;;;;;;;24.98;13.88;;;9.50;99.90;;;;;;5057797;28;20183;-81
2022/03/22 04:13:55;;;;;;;23.70;13.88;;;9.70;99.90;;;;;;5057944;28;20178;-83
2022/03/22 04:16:24;;;;;;;24.63;12.43;;;9.70;99.90;;;;;;5055136;28;20183;-79
2022/03/22 04:18:50;;;;;;;23.88;14.02;;;9.60;99.90;;;;;;5055345;28;20179;-83
2022/03/22 04:21:16;;;;;;;21.88;13.60;;;9.60;99.90;;;;;;5055294;28;20219;-83
2022/03/22 04:23:42;;;;;;;20.80;12.80;;;9.50;99.90;;;;;;5055117;28;20209;-83
2022/03/22 04:26:07;;;;;;;27.05;14.48;;;9.70;99.90;;;;;;5054922;28;20557;-80
2022/03/22 04:34:01;;;;;;;26.83;13.52;;;9.70;99.90;;;;;;5054802;28;20771;-81
2022/03/22 04:36:28;;;;;;;24.92;12.88;;;9.70;99.90;;;;;;5054223;28;20187;-83
2022/03/22 04:38:55;;;;;;;25.38;13.32;;;9.70;99.90;;;;;;5054074;28;20186;-79
2022/03/22 04:41:20;;;;;;;23.13;13.32;;;9.50;99.90;;;;;;5054816;28;20289;-82
2022/03/22 04:43:46;;;;;;;21.20;13.02;;;9.60;99.90;;;;;;5036854;28;20600;-82
2022/03/22 04:46:17;;;;;;;33.33;13.13;;;9.60;99.90;;;;;;5036903;28;20195;-82
2022/03/22 04:48:46;;;;;;;25.05;13.63;;;9.60;99.90;;;;;;5054568;28;20520;-81
2022/03/22 04:56:46;;;;;;;24.13;12.73;;;9.30;99.90;;;;;;5054667;28;20197;-81
2022/03/22 04:59:14;;;;;;;19.52;12.27;;;9.30;99.90;;;;;;5054354;28;20158;-84
2022/03/22 05:01:39;;;;;;;30.38;12.95;;;9.30;99.90;;;;;;5036015;28;20230;-83
2022/03/22 05:04:05;;;;;;;18.98;12.80;;;9.30;99.90;;;;;;5053853;28;20200;-80
2022/03/22 05:06:35;;;;;;;26.42;12.02;;;9.30;99.90;;;;;;5054356;28;20210;-83
2022/03/22 05:09:02;;;;;;;23.60;13.85;;;9.40;99.90;;;;;;5054389;28;20695;-83
2022/03/22 05:11:27;;;;;;;22.02;12.25;;;9.40;99.90;;;;;;5036123;28;20262;-83
2022/03/22 05:13:54;;;;;;;16.10;11.75;;;9.30;99.90;;;;;;5053924;28;20205;-79
2022/03/22 05:16:21;;;;;;;25.42;11.90;;;9.30;99.90;;;;;;5053941;28;20262;-82
2022/03/22 05:18:50;;;;;;;19.13;12.07;;;9.30;99.90;;;;;;5053787;28;20585;-81
2022/03/22 05:21:17;;;;;;;24.52;12.80;;;9.30;99.90;;;;;;5036208;28;20603;-80
2022/03/22 05:23:45;;;;;;;16.50;11.50;;;9.30;99.90;;;;;;5052781;28;20205;-80
2022/03/22 05:26:12;;;;;;;20.70;12.40;;;9.40;99.90;;;;;;5061201;28;20163;-83
2022/03/22 05:28:37;;;;;;;20.35;11.93;;;9.30;99.90;;;;;;5053637;28;20206;-81
2022/03/22 05:31:04;;;;;;;24.10;11.57;;;9.30;99.90;;;;;;5053510;28;20194;-83
2022/03/22 05:33:29;;;;;;;18.45;10.68;;;9.30;99.90;;;;;;5053319;28;20159;-82
2022/03/22 05:35:56;;;;;;;17.02;12.20;;;9.30;99.90;;;;;;5035595;28;20187;-81
2022/03/22 05:38:25;;;;;;;22.05;13.07;;;9.30;99.90;;;;;;5053269;28;20186;-80
2022/03/22 05:40:51;;;;;;;24.55;12.52;;;9.40;99.90;;;;;;5053405;28;20171;-80
2022/03/22 05:43:16;;;;;;;22.70;12.07;;;9.40;99.90;;;;;;5052176;28;20202;-84
2022/03/22 05:45:46;;;;;;;31.35;11.45;;;9.40;99.90;;;;;;5035469;28;20254;-81
2022/03/22 05:48:12;;;;;;;28.52;12.40;;;9.40;99.90;;;;;;5052908;28;20195;-82
2022/03/22 05:50:38;;;;;;;23.38;12.30;;;9.40;99.90;;;;;;5052974;28;20159;-83
2022/03/22 05:53:03;;;;;;;19.98;13.05;;;9.40;99.90;;;;;;5052771;28;20603;-82
2022/03/22 05:55:29;;;;;;;19.40;11.75;;;9.40;99.90;;;;;;5053015;28;20177;-79
2022/03/22 05:57:55;;;;;;;17.83;11.35;;;9.30;99.90;;;;;;5053093;28;20686;-80
2022/03/22 06:00:21;;;;;;;16.80;11.88;;;9.20;99.90;;;;;;5053282;28;20171;-82
2022/03/22 06:02:47;;;;;;;19.98;12.45;;;9.20;99.90;;;;;;5052721;28;20222;-83
2022/03/22 06:05:14;;;;;;;21.02;11.63;;;9.20;99.90;;;;;;5052652;28;20179;-80
2022/03/22 06:07:41;;;;;;;19.30;10.40;;;9.30;99.90;;;;;;5052586;28;20187;-81
2022/03/22 06:10:08;;;;;;;26.85;12.20;;;9.30;99.90;;;;;;5052563;28;20177;-79
2022/03/22 06:12:41;;;;;;;26.67;11.82;;;9.30;99.90;;;;;;5053124;28;20171;-81
2022/03/22 06:15:16;;;;;;;19.05;11.75;;;9.40;99.90;;;;;;5052777;28;20171;-83
2022/03/22 06:17:49;;;;;;;23.77;11.73;;;9.60;99.90;;;;;;5034794;28;20193;-83
2022/03/22 06:20:16;;;;;;;33.10;12.70;;;9.70;99.90;;;;;;5052616;28;20254;-82
2022/03/22 06:22:44;;;;;;;27.88;12.13;;;9.70;99.90;;;;;;5053245;28;20290;-80
2022/03/22 06:25:10;;;;;;;26.13;12.65;;;9.80;99.90;;;;;;5053536;28;20250;-80
2022/03/22 06:27:36;;;;;;;30.25;11.93;;;9.90;99.90;;;;;;5035081;28;20279;-82
2022/03/22 06:30:06;;;;;;;27.20;11.30;;;10.00;99.90;;;;;;5052597;28;20194;-83
2022/03/22 06:32:45;;;;;;;27.90;11.95;;;9.90;99.90;;;;;;5052616;28;20628;-83
2022/03/22 06:35:13;;;;;;;19.88;12.23;;;9.90;99.90;;;;;;5052219;28;20159;-78
2022/03/22 06:37:39;;;;;;;19.63;13.00;;;10.10;99.90;;;;;;5052343;28;20217;-81
2022/03/22 06:40:07;;;;;;;20.58;11.85;;;10.10;99.90;;;;;;5052991;28;20383;-78
2022/03/22 06:42:33;;;;;;;19.60;11.85;;;10.20;99.90;;;;;;5052802;28;20293;-80
2022/03/22 06:44:59;;;;;;;28.50;11.82;;;10.30;99.90;;;;;;5034296;28;20166;-81
2022/03/22 06:47:24;;;;;;;41.90;11.85;;;10.40;99.90;;;;;;5052557;28;20190;-82
2022/03/22 06:49:50;;;;;;;19.83;11.68;;;10.40;99.90;;;;;;5056080;28;20654;-80
2022/03/22 06:52:15;;;;;;;24.02;12.27;;;10.30;99.90;;;;;;5034791;28;20170;-79
2022/03/22 06:54:41;;;;;;;24.67;12.23;;;10.20;99.90;;;;;;5054612;28;20162;-79
2022/03/22 06:57:07;;;;;;;31.33;12.68;;;10.40;99.90;;;;;;5056405;28;20663;-80
2022/03/22 06:59:34;;;;;;;33.35;13.23;;;10.50;99.90;;;;;;5038678;28;20163;-80
2022/03/22 07:02:00;;;;;;;35.97;13.05;;;10.80;99.90;;;;;;5056534;28;20253;-84
2022/03/22 07:04:27;;;;;;;37.90;13.80;;;10.90;99.90;;;;;;5056067;28;20175;-80
2022/03/22 07:06:53;;;;;;;28.95;13.40;;;10.80;99.90;;;;;;5057398;28;20667;-80
2022/03/22 07:09:18;;;;;;;37.28;13.93;;;10.90;99.90;;;;;;5056457;28;20175;-79
2022/03/22 07:11:50;;;;;;;28.85;13.30;;;11.10;99.90;;;;;;5056387;28;20163;-79
2022/03/22 07:14:24;;;;;;;34.20;12.57;;;11.10;99.90;;;;;;5056055;28;20164;-82
2022/03/22 07:16:50;;;;;;;20.52;12.80;;;11.20;99.90;;;;;;5038281;28;20210;-81
2022/03/22 07:19:17;;;;;;;17.42;13.25;;;11.30;99.90;;;;;;5056597;28;20600;-80
2022/03/22 07:21:43;;;;;;;33.53;13.45;;;11.40;99.90;;;;;;5055967;28;20218;-83
2022/03/22 07:24:11;;;;;;;36.33;13.88;;;11.40;99.90;;;;;;5055922;28;20195;-81
2022/03/22 07:26:37;;;;;;;44.72;15.30;;;11.50;99.90;;;;;;5056353;28;20213;-84
2022/03/22 07:29:03;;;;;;;24.98;13.10;;;11.50;99.90;;;;;;5038744;28;20162;-79
2022/03/22 07:31:29;;;;;;;27.75;13.38;;;11.60;99.90;;;;;;5055972;28;20179;-79
2022/03/22 07:33:56;;;;;;;25.67;13.27;;;11.80;99.90;;;;;;5055985;28;20171;-79
2022/03/22 07:36:22;;;;;;;26.50;12.20;;;12.00;99.90;;;;;;5055635;28;20190;-78
2022/03/22 07:38:48;;;;;;;31.85;12.85;;;12.20;99.90;;;;;;5055607;28;20250;-80
2022/03/22 07:41:14;;;;;;;33.75;14.80;;;12.30;99.90;;;;;;5055762;28;20532;-83
2022/03/22 07:43:42;;;;;;;37.42;14.18;;;12.30;99.90;;;;;;5056262;28;20181;-79
2022/03/22 07:46:08;;;;;;;36.67;14.93;;;12.50;99.90;;;;;;5062273;28;20171;-85
2022/03/22 07:48:34;;;;;;;41.45;14.20;;;12.70;99.90;;;;;;5062773;28;20593;-82
2022/03/22 07:53:45;;;;;;;33.55;15.13;;;13.00;99.90;;;;;;5062682;28;20185;-80
2022/03/22 07:56:11;;;;;;;30.05;14.05;;;13.10;99.90;;;;;;5070962;28;20170;-80
2022/03/22 07:58:37;;;;;;;28.98;14.77;;;13.20;99.90;;;;;;5068597;28;20249;-82
2022/03/22 08:01:03;;;;;;;45.33;16.30;;;13.40;99.90;;;;;;5030690;28;20186;-81
2022/03/22 08:03:29;;;;;;;38.42;15.60;;;13.60;99.90;;;;;;5065445;28;20167;-84
2022/03/22 08:05:55;;;;;;;42.83;15.57;;;13.60;99.90;;;;;;5065679;28;20186;-80
2022/03/22 08:08:21;;;;;;;41.20;15.55;;;13.80;99.90;;;;;;5062090;28;20171;-78
2022/03/22 08:10:47;;;;;;;63.15;17.08;;;13.90;99.90;;;;;;5055731;28;20162;-82
2022/03/22 08:13:13;;;;;;;59.70;17.58;;;14.00;99.90;;;;;;5055625;28;20166;-80
2022/03/22 08:15:40;;;;;;;41.65;15.05;;;14.00;99.90;;;;;;5055881;28;20539;-80
2022/03/22 08:18:05;;;;;;;42.58;15.52;;;14.20;99.90;;;;;;5057967;28;20303;-78
2022/03/22 08:20:32;;;;;;;53.30;16.77;;;14.30;99.90;;;;;;5056345;28;20620;-78
2022/03/22 08:22:59;;;;;;;37.45;15.75;;;14.40;99.90;;;;;;5046357;28;20578;-82
2022/03/22 08:25:38;;;;;;;37.72;17.55;;;14.50;99.90;;;;;;5070391;28;20163;-80
2022/03/22 08:28:09;;;;;;;27.35;16.48;;;14.60;99.90;;;;;;5053414;28;20198;-81
2022/03/22 08:30:35;;;;;;;29.13;15.55;;;14.70;99.90;;;;;;5072089;28;20179;-79
2022/03/22 08:33:12;;;;;;;37.17;16.40;;;14.90;99.90;;;;;;5038563;28;20254;-82
2022/03/22 08:35:47;;;;;;;44.47;19.80;;;14.90;99.90;;;;;;5020145;28;20250;-87
2022/03/22 08:38:19;;;;;;;36.80;17.40;;;15.00;99.90;;;;;;5035615;28;20184;-82
2022/03/22 08:40:45;;;;;;;32.97;18.75;;;15.20;99.90;;;;;;5035515;28;20183;-81
2022/03/22 08:43:11;;;;;;;39.53;16.67;;;15.50;99.90;;;;;;5033998;28;20203;-84
2022/03/22 08:45:38;;;;;;;28.83;13.73;;;15.60;99.90;;;;;;5036881;28;20160;-84
2022/03/22 08:48:10;;;;;;;22.60;12.50;;;15.70;99.90;;;;;;5017323;28;20533;-84
2022/03/22 08:50:37;;;;;;;27.13;12.40;;;15.80;99.90;;;;;;5016759;28;20186;-83
2022/03/22 08:53:03;;;;;;;20.27;11.57;;;15.90;99.90;;;;;;5033879;28;20262;-83
2022/03/22 08:55:29;;;;;;;17.25;10.80;;;16.00;99.90;;;;;;5035458;28;20332;-81
2022/03/22 08:57:55;;;;;;;29.55;12.75;;;16.10;99.90;;;;;;5053564;28;20195;-82
2022/03/22 09:00:22;;;;;;;24.13;11.55;;;16.10;99.90;;;;;;5033887;28;20213;-84
2022/03/22 09:02:50;;;;;;;20.80;11.10;;;16.10;99.90;;;;;;5046324;28;20689;-81
2022/03/22 09:08:02;;;;;;;28.35;11.68;;;16.40;99.90;;;;;;5053516;28;20562;-81
2022/03/22 09:10:30;;;;;;;23.95;11.18;;;16.50;99.90;;;;;;5040499;28;20526;-83
2022/03/22 09:12:57;;;;;;;16.05;11.30;;;16.60;99.90;;;;;;5033559;28;20707;-83
2022/03/22 09:15:28;;;;;;;17.77;12.02;;;16.60;99.90;;;;;;5032029;28;20200;-83
2022/03/22 09:17:55;;;;;;;20.67;11.38;;;16.60;99.90;;;;;;5033323;28;20196;-82
2022/03/22 09:20:21;;;;;;;25.27;10.50;;;16.50;99.90;;;;;;5036752;28;20182;-84
2022/03/22 09:22:49;;;;;;;19.42;11.70;;;16.80;99.90;;;;;;5033850;28;20203;-83
2022/03/22 09:25:16;;;;;;;24.58;12.07;;;16.90;99.90;;;;;;5041501;28;20270;-83
2022/03/22 09:27:43;;;;;;;21.05;12.20;;;16.90;99.90;;;;;;5053658;28;20197;-80
2022/03/22 09:30:10;;;;;;;34.33;12.60;;;16.90;99.90;;;;;;5035836;28;20210;-83
2022/03/22 09:32:37;;;;;;;21.10;12.30;;;16.60;99.90;;;;;;5053734;28;20730;-81
2022/03/22 09:35:06;;;;;;;20.65;10.80;;;16.60;99.90;;;;;;5017324;28;20214;-83
2022/03/22 09:37:33;;;;;;;23.38;12.23;;;16.60;99.90;;;;;;5031542;28;20266;-88
2022/03/22 09:39:59;;;;;;;19.98;11.55;;;16.70;99.90;;;;;;5032725;28;20175;-82
2022/03/22 09:42:27;;;;;;;27.33;12.45;;;17.00;99.90;;;;;;5038451;28;20248;-79
2022/03/22 09:44:56;;;;;;;23.65;12.05;;;17.20;99.90;;;;;;5019264;28;20179;-85
2022/03/22 09:47:22;;;;;;;34.53;11.43;;;17.20;99.90;;;;;;5043526;28;20230;-83
2022/03/22 09:49:49;;;;;;;26.55;10.93;;;17.40;99.90;;;;;;5052419;28;20167;-79
2022/03/22 09:52:16;;;;;;;25.17;11.02;;;17.60;99.90;;;;;;5036850;28;20652;-87
2022/03/22 09:54:42;;;;;;;24.63;12.05;;;17.40;99.90;;;;;;5049571;28;20766;-79
2022/03/22 09:57:07;;;;;;;19.88;11.68;;;17.60;99.90;;;;;;5024190;28;20266;-86
2022/03/22 09:59:34;;;;;;;33.90;12.82;;;17.70;99.90;;;;;;5053664;28;20159;-80
2022/03/22 10:02:01;;;;;;;30.63;12.80;;;17.80;99.90;;;;;;5033250;28;20203;-86
2022/03/22 10:04:36;;;;;;;33.55;12.18;;;17.90;99.90;;;;;;5054548;28;20202;-78
2022/03/22 10:07:03;;;;;;;16.65;10.70;;;17.90;99.90;;;;;;5054879;28;20198;-88
2022/03/22 10:09:31;;;;;;;30.73;11.18;;;18.00;99.90;;;;;;5024820;28;20175;-79
2022/03/22 10:11:57;;;;;;;22.35;10.93;;;18.10;99.90;;;;;;5045654;28;20171;-83
2022/03/22 10:14:41;;;;;;;17.95;10.73;;;18.20;99.40;;;;;;5053076;28;20163;-80
2022/03/22 10:17:12;;;;;;;33.05;10.93;;;18.30;99.50;;;;;;5053610;28;20202;-80
2022/03/22 10:19:46;;;;;;;30.20;12.60;;;18.30;99.30;;;;;;5051061;28;20171;-80
2022/03/22 10:22:12;;;;;;;23.83;12.38;;;18.30;98.80;;;;;;5038180;28;20285;-82
2022/03/22 10:24:46;;;;;;;28.65;12.63;;;18.40;99.40;;;;;;5018018;28;20160;-85
2022/03/22 10:27:27;;;;;;;26.08;12.25;;;18.60;98.70;;;;;;5034622;28;20245;-80
2022/03/22 10:29:54;;;;;;;28.08;12.68;;;18.60;98.00;;;;;;5056906;28;20209;-79
2022/03/22 10:32:33;;;;;;;35.70;11.32;;;18.60;97.20;;;;;;5049354;28;20163;-86
2022/03/22 10:35:20;;;;;;;23.77;12.05;;;18.70;97.40;;;;;;5054434;28;20188;-84
2022/03/22 10:37:47;;;;;;;20.45;12.45;;;18.70;97.00;;;;;;5054979;28;20247;-90
2022/03/22 10:40:40;;;;;;;29.15;12.27;;;18.60;97.20;;;;;;5056472;28;20182;-90
2022/03/22 10:43:16;;;;;;;22.08;12.68;;;18.40;97.10;;;;;;5055313;28;20687;-91
2022/03/22 10:45:49;;;;;;;21.40;12.00;;;18.60;96.70;;;;;;5055112;28;20678;-92
2022/03/22 10:48:23;;;;;;;24.38;12.95;;;18.80;96.30;;;;;;5056222;28;20191;-88
2022/03/22 10:50:50;;;;;;;32.33;13.20;;;18.60;96.20;;;;;;5055640;28;20167;-92
2022/03/22 10:53:18;;;;;;;38.67;13.80;;;18.80;96.20;;;;;;5038027;28;20174;-91
2022/03/22 10:55:45;;;;;;;20.58;13.43;;;18.80;95.70;;;;;;5038139;28;20182;-91
2022/03/22 10:58:13;;;;;;;28.10;13.55;;;18.90;95.40;;;;;;5039564;28;20244;-85
2022/03/22 11:00:42;;;;;;;30.02;12.38;;;18.80;95.60;;;;;;5037407;28;20233;-85
2022/03/22 11:03:10;;;;;;;39.33;13.18;;;18.90;95.00;;;;;;5055218;28;20203;-84
2022/03/22 11:05:36;;;;;;;37.78;14.85;;;19.10;95.50;;;;;;5037351;28;20167;-94
2022/03/22 11:08:02;;;;;;;28.02;12.30;;;19.20;95.30;;;;;;5055584;28;20183;-90
2022/03/22 11:10:31;;;;;;;35.67;13.88;;;19.00;94.80;;;;;;5055719;28;20174;-84
2022/03/22 11:12:58;;;;;;;29.10;12.75;;;19.10;94.60;;;;;;5038709;28;20224;-93
2022/03/22 11:15:29;;;;;;;29.63;11.95;;;19.10;94.20;;;;;;5038988;28;20179;-94
2022/03/22 11:17:56;;;;;;;20.70;10.07;;;19.00;94.10;;;;;;5039064;28;20191;-92
2022/03/22 11:20:25;;;;;;;21.10;10.45;;;19.00;93.70;;;;;;5038493;28;20172;-86
2022/03/22 11:22:54;;;;;;;26.55;11.50;;;19.10;94.30;;;;;;5044294;28;20241;-91
2022/03/22 11:25:25;;;;;;;20.63;11.48;;;19.20;94.10;;;;;;5039849;28;20175;-90
2022/03/22 11:27:57;;;;;;;22.85;12.10;;;19.10;93.80;;;;;;5038076;28;20203;-88
2022/03/22 11:30:22;;;;;;;33.92;12.25;;;19.30;94.20;;;;;;5036867;28;20266;-87
2022/03/22 11:35:49;;;;;;;31.10;11.02;;;19.20;93.80;;;;;;5055278;28;20228;-85
2022/03/22 11:38:50;;;;;;;23.88;10.25;;;19.20;93.90;;;;;;5055683;28;20183;-86
2022/03/22 11:44:37;;;;;;;25.52;9.68;;;19.30;93.60;;;;;;5059481;28;20197;-86
2022/03/22 11:47:20;;;;;;;27.50;10.65;;;19.30;93.60;;;;;;5058752;28;20221;-85
2022/03/22 11:50:07;;;;;;;14.90;10.30;;;19.40;93.60;;;;;;5049822;28;20186;-81
2022/03/22 11:52:40;;;;;;;25.10;9.98;;;19.40;92.90;;;;;;5037576;28;20175;-84
2022/03/22 11:55:07;;;;;;;28.48;10.60;;;19.40;93.70;;;;;;5037269;28;20171;-80
2022/03/22 11:57:52;;;;;;;22.02;10.20;;;19.30;93.90;;;;;;5038627;28;20191;-79
2022/03/22 12:00:22;;;;;;;24.42;10.30;;;19.30;93.70;;;;;;5040201;28;20778;-79
2022/03/22 12:02:53;;;;;;;21.27;9.50;;;19.30;93.70;;;;;;5038603;28;20230;-86
2022/03/22 12:05:20;;;;;;;16.45;10.00;;;19.20;93.80;;;;;;5040407;28;20164;-88
2022/03/22 12:07:47;;;;;;;14.20;9.35;;;19.00;94.20;;;;;;5044987;28;20226;-90
2022/03/22 12:10:16;;;;;;;18.73;9.52;;;19.20;94.20;;;;;;5046193;28;20160;-89
2022/03/22 12:12:50;;;;;;;12.05;8.60;;;19.30;94.10;;;;;;5044140;28;20617;-85
2022/03/22 12:15:17;;;;;;;20.63;8.48;;;19.40;93.90;;;;;;5026969;28;20171;-89
2022/03/22 12:17:44;;;;;;;18.63;9.88;;;19.30;93.60;;;;;;5045187;28;20275;-85
2022/03/22 12:20:15;;;;;;;20.13;9.50;;;19.40;93.70;;;;;;5037756;28;20160;-82
2022/03/22 12:22:46;;;;;;;30.55;9.50;;;19.20;93.80;;;;;;5036006;28;20207;-78
2022/03/22 12:25:18;;;;;;;21.35;9.82;;;19.00;94.40;;;;;;5017981;28;20231;-79
2022/03/22 12:27:57;;;;;;;24.50;10.05;;;19.10;94.70;;;;;;5035713;28;20214;-80
2022/03/22 12:30:28;;;;;;;12.95;9.48;;;19.30;93.80;;;;;;5036087;28;20183;-78
2022/03/22 12:32:56;;;;;;;25.90;9.85;;;19.10;93.70;;;;;;5035278;28;20585;-78
2022/03/22 12:35:22;;;;;;;12.27;9.27;;;19.20;93.60;;;;;;5035282;28;20164;-78
2022/03/22 12:37:51;;;;;;;22.52;8.48;;;19.20;93.30;;;;;;5035265;28;20290;-81
2022/03/22 12:40:19;;;;;;;21.23;8.80;;;19.20;93.50;;;;;;5035284;28;20175;-80
2022/03/22 12:42:45;;;;;;;13.13;7.85;;;19.10;93.50;;;;;;5035209;28;20275;-80
2022/03/22 12:45:12;;;;;;;13.20;8.02;;;18.90;93.90;;;;;;5035738;28;20190;-79
2022/03/22 12:47:39;;;;;;;10.95;7.20;;;18.80;93.90;;;;;;5049095;28;20198;-80
2022/03/22 12:50:08;;;;;;;17.17;7.70;;;18.70;94.10;;;;;;5063116;28;20226;-78
2022/03/22 12:52:34;;;;;;;13.77;7.03;;;18.70;94.00;;;;;;5060613;28;20646;-79
2022/03/22 12:55:01;;;;;;;14.30;7.50;;;18.80;94.10;;;;;;5054171;28;20164;-79
2022/03/22 12:57:26;;;;;;;12.43;9.15;;;18.90;94.10;;;;;;5049226;28;20186;-78
2022/03/22 12:59:52;;;;;;;13.07;8.13;;;19.00;93.80;;;;;;5050739;28;20195;-78
2022/03/22 13:02:19;;;;;;;17.48;7.75;;;19.10;93.60;;;;;;5044073;28;20207;-77
2022/03/22 13:04:48;;;;;;;15.68;6.90;;;19.20;93.50;;;;;;5046408;28;20164;-79
2022/03/22 13:07:21;;;;;;;12.95;8.13;;;19.40;93.30;;;;;;5055438;28;20259;-80